KCHK/CHK METAR and TAF weather

Enter ICAO airport designator
Station Type Date Time Source
KCHK METAR 2024/07/13 03:35 UTC NOAA

KCHK 130335Z AUTO 00000KT 10SM CLR 27/20 A3003 RMK AO2 T02710199


Station Type Date Time Source
KCHK Decoded METAR 2024/07/13 03:35 UTC NOAA

Chickasha, Chickasha Municipal Airport, OK, United States (KCHK) 35-05-46N 097-57-58W
Jul 12, 2024 - 11:35 PM EDT / 2024.07.13 0335 UTC
Wind: Calm:0
Visibility: 10 mile(s):0
Sky conditions: clear
Temperature: 80.8 F (27.1 C)
Dew Point: 67.8 F (19.9 C)
Relative Humidity: 64%
Pressure (altimeter): 30.03 in. Hg (1016 hPa)
ob: KCHK 130335Z AUTO 00000KT 10SM CLR 27/20 A3003 RMK AO2 T02710199
cycle: 3

Station Type Date Time Source
KCHK TAF UTC NOAA

Error!

Example: see airport list